sensor_id;sensor_type;location;lat;lon;timestamp;pressure;altitude;pressure_sealevel;temperature;humidity
9764;BME280;4921;43.214;27.936;2023-11-18T00:00:14;99946.91;;;14.06;100.00
9764;BME280;4921;43.214;27.936;2023-11-18T00:02:44;99948.03;;;14.03;100.00
9764;BME280;4921;43.214;27.936;2023-11-18T00:05:11;99953.16;;;14.05;100.00
9764;BME280;4921;43.214;27.936;2023-11-18T00:07:39;99958.75;;;14.02;100.00
9764;BME280;4921;43.214;27.936;2023-11-18T00:10:07;99948.50;;;13.91;100.00
9764;BME280;4921;43.214;27.936;2023-11-18T00:12:34;99959.72;;;13.93;100.00
9764;BME280;4921;43.214;27.936;2023-11-18T00:15:01;99965.63;;;13.87;100.00
9764;BME280;4921;43.214;27.936;2023-11-18T00:17:29;99961.84;;;13.89;100.00
9764;BME280;4921;43.214;27.936;2023-11-18T00:19:59;99974.94;;;13.91;100.00
9764;BME280;4921;43.214;27.936;2023-11-18T00:22:26;99958.41;;;13.89;100.00
9764;BME280;4921;43.214;27.936;2023-11-18T00:24:53;99955.88;;;13.79;100.00
9764;BME280;4921;43.214;27.936;2023-11-18T00:27:20;99956.84;;;13.78;100.00
9764;BME280;4921;43.214;27.936;2023-11-18T00:29:50;99968.72;;;13.74;100.00
9764;BME280;4921;43.214;27.936;2023-11-18T00:32:18;99957.34;;;13.73;100.00
9764;BME280;4921;43.214;27.936;2023-11-18T00:34:45;99955.19;;;13.77;100.00
9764;BME280;4921;43.214;27.936;2023-11-18T00:37:14;99957.19;;;13.75;100.00
9764;BME280;4921;43.214;27.936;2023-11-18T00:39:41;99954.50;;;13.67;100.00
9764;BME280;4921;43.214;27.936;2023-11-18T00:42:08;99956.66;;;13.71;100.00
9764;BME280;4921;43.214;27.936;2023-11-18T00:44:35;99948.19;;;13.60;100.00
9764;BME280;4921;43.214;27.936;2023-11-18T00:47:02;99949.06;;;13.68;100.00
9764;BME280;4921;43.214;27.936;2023-11-18T00:49:29;99945.75;;;13.66;100.00
9764;BME280;4921;43.214;27.936;2023-11-18T00:51:56;99945.47;;;13.77;100.00
9764;BME280;4921;43.214;27.936;2023-11-18T00:54:25;99941.53;;;13.90;100.00
9764;BME280;4921;43.214;27.936;2023-11-18T00:56:52;99939.38;;;13.93;100.00
9764;BME280;4921;43.214;27.936;2023-11-18T00:59:19;99929.16;;;13.90;100.00
9764;BME280;4921;43.214;27.936;2023-11-18T01:01:46;99936.25;;;13.90;100.00
9764;BME280;4921;43.214;27.936;2023-11-18T01:04:14;99927.34;;;13.91;100.00
9764;BME280;4921;43.214;27.936;2023-11-18T01:06:42;99939.06;;;13.88;100.00
9764;BME280;4921;43.214;27.936;2023-11-18T01:09:09;99923.50;;;13.85;100.00
9764;BME280;4921;43.214;27.936;2023-11-18T01:11:38;99922.38;;;13.88;100.00
9764;BME280;4921;43.214;27.936;2023-11-18T01:14:05;99912.47;;;13.90;100.00
9764;BME280;4921;43.214;27.936;2023-11-18T01:16:33;99915.91;;;13.82;100.00
9764;BME280;4921;43.214;27.936;2023-11-18T01:19:00;99913.22;;;13.74;100.00
9764;BME280;4921;43.214;27.936;2023-11-18T01:21:27;99908.09;;;13.72;100.00
9764;BME280;4921;43.214;27.936;2023-11-18T01:23:54;99912.25;;;13.75;100.00
9764;BME280;4921;43.214;27.936;2023-11-18T01:26:21;99916.69;;;13.74;100.00
9764;BME280;4921;43.214;27.936;2023-11-18T01:28:50;99919.50;;;13.65;100.00
9764;BME280;4921;43.214;27.936;2023-11-18T01:31:17;99913.16;;;13.58;100.00
9764;BME280;4921;43.214;27.936;2023-11-18T01:33:44;99910.19;;;13.61;100.00
9764;BME280;4921;43.214;27.936;2023-11-18T01:36:12;99902.59;;;13.58;100.00
9764;BME280;4921;43.214;27.936;2023-11-18T01:38:39;99902.59;;;13.58;100.00
9764;BME280;4921;43.214;27.936;2023-11-18T01:41:07;99895.78;;;13.47;100.00
9764;BME280;4921;43.214;27.936;2023-11-18T01:43:35;99888.84;;;13.46;100.00
9764;BME280;4921;43.214;27.936;2023-11-18T01:46:06;99887.34;;;13.44;100.00
9764;BME280;4921;43.214;27.936;2023-11-18T01:48:36;99881.09;;;13.45;100.00
9764;BME280;4921;43.214;27.936;2023-11-18T01:51:05;99870.31;;;13.38;100.00
9764;BME280;4921;43.214;27.936;2023-11-18T01:53:36;99851.50;;;13.41;100.00
9764;BME280;4921;43.214;27.936;2023-11-18T01:56:04;99847.38;;;13.39;100.00
9764;BME280;4921;43.214;27.936;2023-11-18T01:58:32;99844.75;;;13.39;100.00
9764;BME280;4921;43.214;27.936;2023-11-18T02:01:01;99833.63;;;13.27;100.00
9764;BME280;4921;43.214;27.936;2023-11-18T02:03:30;99840.81;;;13.43;100.00
9764;BME280;4921;43.214;27.936;2023-11-18T02:05:57;99840.19;;;13.57;100.00
9764;BME280;4921;43.214;27.936;2023-11-18T02:08:24;99848.94;;;13.57;100.00
9764;BME280;4921;43.214;27.936;2023-11-18T02:10:57;99859.00;;;13.54;100.00
9764;BME280;4921;43.214;27.936;2023-11-18T02:13:29;99852.34;;;13.42;100.00
9764;BME280;4921;43.214;27.936;2023-11-18T02:15:58;99853.16;;;13.34;100.00
9764;BME280;4921;43.214;27.936;2023-11-18T02:18:27;99856.31;;;13.46;100.00
9764;BME280;4921;43.214;27.936;2023-11-18T02:20:57;99855.03;;;13.50;100.00
9764;BME280;4921;43.214;27.936;2023-11-18T02:23:24;99856.19;;;13.47;100.00
9764;BME280;4921;43.214;27.936;2023-11-18T02:25:53;99861.56;;;13.38;100.00
9764;BME280;4921;43.214;27.936;2023-11-18T02:28:21;99860.44;;;13.40;100.00
9764;BME280;4921;43.214;27.936;2023-11-18T02:30:50;99868.47;;;13.31;100.00
9764;BME280;4921;43.214;27.936;2023-11-18T02:33:25;99882.53;;;13.39;100.00
9764;BME280;4921;43.214;27.936;2023-11-18T02:36:00;99887.56;;;13.25;100.00
9764;BME280;4921;43.214;27.936;2023-11-18T02:38:35;99902.97;;;13.37;100.00
9764;BME280;4921;43.214;27.936;2023-11-18T02:41:11;99883.22;;;13.16;100.00
9764;BME280;4921;43.214;27.936;2023-11-18T02:43:40;99903.41;;;13.25;100.00
9764;BME280;4921;43.214;27.936;2023-11-18T02:46:07;99904.50;;;13.14;100.00
9764;BME280;4921;43.214;27.936;2023-11-18T02:48:35;99902.06;;;13.21;100.00
9764;BME280;4921;43.214;27.936;2023-11-18T02:51:05;99907.16;;;13.14;100.00
9764;BME280;4921;43.214;27.936;2023-11-18T02:53:33;99911.25;;;13.09;100.00
9764;BME280;4921;43.214;27.936;2023-11-18T02:56:00;99908.97;;;13.14;100.00
9764;BME280;4921;43.214;27.936;2023-11-18T02:58:31;99904.91;;;13.01;100.00
9764;BME280;4921;43.214;27.936;2023-11-18T03:00:58;99894.19;;;13.03;100.00
9764;BME280;4921;43.214;27.936;2023-11-18T03:03:26;99902.56;;;12.98;100.00
9764;BME280;4921;43.214;27.936;2023-11-18T03:05:54;99895.88;;;12.86;100.00
9764;BME280;4921;43.214;27.936;2023-11-18T03:08:20;99886.63;;;12.82;100.00
9764;BME280;4921;43.214;27.936;2023-11-18T03:10:47;99887.47;;;12.83;100.00
9764;BME280;4921;43.214;27.936;2023-11-18T03:13:18;99886.97;;;12.87;100.00
9764;BME280;4921;43.214;27.936;2023-11-18T03:15:47;99882.06;;;12.92;100.00
9764;BME280;4921;43.214;27.936;2023-11-18T03:18:14;99884.66;;;12.84;100.00
9764;BME280;4921;43.214;27.936;2023-11-18T03:20:42;99893.72;;;12.64;100.00
9764;BME280;4921;43.214;27.936;2023-11-18T03:23:08;99885.53;;;12.67;100.00
9764;BME280;4921;43.214;27.936;2023-11-18T03:25:35;99887.53;;;12.73;100.00
9764;BME280;4921;43.214;27.936;2023-11-18T03:28:03;99902.25;;;12.76;100.00
9764;BME280;4921;43.214;27.936;2023-11-18T03:30:32;99897.63;;;12.78;100.00
9764;BME280;4921;43.214;27.936;2023-11-18T03:33:02;99888.88;;;12.77;100.00
9764;BME280;4921;43.214;27.936;2023-11-18T03:35:29;99898.34;;;12.62;100.00
9764;BME280;4921;43.214;27.936;2023-11-18T03:37:56;99899.00;;;12.64;100.00
9764;BME280;4921;43.214;27.936;2023-11-18T03:40:23;99885.56;;;12.75;100.00
9764;BME280;4921;43.214;27.936;2023-11-18T03:42:50;99879.16;;;12.78;100.00
9764;BME280;4921;43.214;27.936;2023-11-18T03:45:19;99886.81;;;12.63;100.00
9764;BME280;4921;43.214;27.936;2023-11-18T03:47:46;99884.00;;;12.65;100.00
9764;BME280;4921;43.214;27.936;2023-11-18T03:50:18;99885.91;;;12.55;100.00
9764;BME280;4921;43.214;27.936;2023-11-18T03:52:45;99888.69;;;12.53;100.00
9764;BME280;4921;43.214;27.936;2023-11-18T03:55:12;99886.13;;;12.61;100.00
9764;BME280;4921;43.214;27.936;2023-11-18T03:57:39;99888.34;;;12.48;100.00
9764;BME280;4921;43.214;27.936;2023-11-18T04:00:07;99879.31;;;12.51;100.00
9764;BME280;4921;43.214;27.936;2023-11-18T04:02:37;99863.78;;;12.48;100.00
9764;BME280;4921;43.214;27.936;2023-11-18T04:05:06;99864.06;;;12.45;100.00
9764;BME280;4921;43.214;27.936;2023-11-18T04:07:35;99860.13;;;12.49;100.00
9764;BME280;4921;43.214;27.936;2023-11-18T04:10:02;99843.34;;;12.50;100.00
9764;BME280;4921;43.214;27.936;2023-11-18T04:12:31;99837.44;;;12.56;100.00
9764;BME280;4921;43.214;27.936;2023-11-18T04:14:58;99838.59;;;12.53;100.00
9764;BME280;4921;43.214;27.936;2023-11-18T04:17:25;99843.06;;;12.53;100.00
9764;BME280;4921;43.214;27.936;2023-11-18T04:19:53;99841.84;;;12.47;100.00
9764;BME280;4921;43.214;27.936;2023-11-18T04:22:21;99827.16;;;12.45;100.00
9764;BME280;4921;43.214;27.936;2023-11-18T04:24:50;99807.19;;;12.42;100.00
9764;BME280;4921;43.214;27.936;2023-11-18T04:27:17;99796.50;;;12.44;100.00
9764;BME280;4921;43.214;27.936;2023-11-18T04:29:44;99812.31;;;12.44;100.00
9764;BME280;4921;43.214;27.936;2023-11-18T04:32:11;99799.19;;;12.52;100.00
9764;BME280;4921;43.214;27.936;2023-11-18T04:34:39;99789.78;;;12.49;100.00
9764;BME280;4921;43.214;27.936;2023-11-18T04:37:08;99778.75;;;12.54;100.00
9764;BME280;4921;43.214;27.936;2023-11-18T04:39:35;99775.25;;;12.45;100.00
9764;BME280;4921;43.214;27.936;2023-11-18T04:42:04;99775.25;;;12.45;100.00
9764;BME280;4921;43.214;27.936;2023-11-18T04:44:31;99780.69;;;12.44;100.00
9764;BME280;4921;43.214;27.936;2023-11-18T04:46:58;99783.81;;;12.47;100.00
9764;BME280;4921;43.214;27.936;2023-11-18T04:49:26;99776.59;;;12.49;100.00
9764;BME280;4921;43.214;27.936;2023-11-18T04:51:53;99778.03;;;12.44;100.00
9764;BME280;4921;43.214;27.936;2023-11-18T04:54:20;99783.06;;;12.29;100.00
9764;BME280;4921;43.214;27.936;2023-11-18T04:56:47;99768.94;;;12.38;100.00
9764;BME280;4921;43.214;27.936;2023-11-18T04:59:16;99778.47;;;12.31;100.00
9764;BME280;4921;43.214;27.936;2023-11-18T05:01:43;99778.66;;;12.38;100.00
9764;BME280;4921;43.214;27.936;2023-11-18T05:04:11;99783.28;;;12.18;100.00
9764;BME280;4921;43.214;27.936;2023-11-18T05:06:38;99795.34;;;12.20;100.00
9764;BME280;4921;43.214;27.936;2023-11-18T05:09:05;99805.94;;;12.29;100.00
9764;BME280;4921;43.214;27.936;2023-11-18T05:11:33;99804.66;;;12.33;100.00
9764;BME280;4921;43.214;27.936;2023-11-18T05:14:01;99805.94;;;12.29;100.00
9764;BME280;4921;43.214;27.936;2023-11-18T05:16:31;99807.69;;;12.20;100.00
9764;BME280;4921;43.214;27.936;2023-11-18T05:18:58;99787.56;;;12.19;100.00
9764;BME280;4921;43.214;27.936;2023-11-18T05:21:25;99784.25;;;12.17;100.00
9764;BME280;4921;43.214;27.936;2023-11-18T05:23:52;99801.19;;;12.14;100.00
9764;BME280;4921;43.214;27.936;2023-11-18T05:26:19;99800.41;;;12.14;100.00
9764;BME280;4921;43.214;27.936;2023-11-18T05:28:46;99813.09;;;12.18;100.00
9764;BME280;4921;43.214;27.936;2023-11-18T05:31:15;99817.41;;;12.19;100.00
9764;BME280;4921;43.214;27.936;2023-11-18T05:33:44;99798.50;;;12.24;100.00
9764;BME280;4921;43.214;27.936;2023-11-18T05:36:17;99807.09;;;12.08;100.00
9764;BME280;4921;43.214;27.936;2023-11-18T05:38:52;99788.34;;;11.94;100.00
9764;BME280;4921;43.214;27.936;2023-11-18T05:41:19;99774.09;;;12.04;100.00
9764;BME280;4921;43.214;27.936;2023-11-18T05:43:53;99767.88;;;12.05;100.00
9764;BME280;4921;43.214;27.936;2023-11-18T05:46:23;99752.13;;;11.96;100.00
9764;BME280;4921;43.214;27.936;2023-11-18T05:48:53;99736.41;;;11.86;100.00
9764;BME280;4921;43.214;27.936;2023-11-18T05:51:20;99738.34;;;11.84;100.00
9764;BME280;4921;43.214;27.936;2023-11-18T05:53:48;99741.75;;;11.94;100.00
9764;BME280;4921;43.214;27.936;2023-11-18T05:56:16;99744.69;;;11.91;100.00
9764;BME280;4921;43.214;27.936;2023-11-18T05:58:43;99767.09;;;11.95;100.00
9764;BME280;4921;43.214;27.936;2023-11-18T06:01:11;99770.41;;;11.97;100.00
9764;BME280;4921;43.214;27.936;2023-11-18T06:03:38;99790.00;;;11.95;100.00
9764;BME280;4921;43.214;27.936;2023-11-18T06:06:09;99787.75;;;12.00;100.00
9764;BME280;4921;43.214;27.936;2023-11-18T06:08:37;99769.44;;;11.81;100.00
9764;BME280;4921;43.214;27.936;2023-11-18T06:11:06;99778.25;;;11.89;100.00
9764;BME280;4921;43.214;27.936;2023-11-18T06:13:40;99775.47;;;11.91;100.00
9764;BME280;4921;43.214;27.936;2023-11-18T06:16:13;99774.66;;;11.90;100.00
9764;BME280;4921;43.214;27.936;2023-11-18T06:18:42;99787.97;;;11.89;100.00
9764;BME280;4921;43.214;27.936;2023-11-18T06:21:14;99770.13;;;11.83;100.00
9764;BME280;4921;43.214;27.936;2023-11-18T06:23:41;99793.69;;;12.02;100.00
9764;BME280;4921;43.214;27.936;2023-11-18T06:26:09;99797.66;;;12.06;100.00
9764;BME280;4921;43.214;27.936;2023-11-18T06:28:38;99790.00;;;11.95;100.00
9764;BME280;4921;43.214;27.936;2023-11-18T06:31:05;99814.75;;;12.02;100.00
9764;BME280;4921;43.214;27.936;2023-11-18T06:33:38;99808.66;;;12.01;100.00
9764;BME280;4921;43.214;27.936;2023-11-18T06:36:09;99813.84;;;11.93;100.00
9764;BME280;4921;43.214;27.936;2023-11-18T06:38:38;99801.28;;;11.87;100.00
9764;BME280;4921;43.214;27.936;2023-11-18T06:41:06;99803.16;;;11.95;100.00
9764;BME280;4921;43.214;27.936;2023-11-18T06:43:35;99797.31;;;12.01;100.00
9764;BME280;4921;43.214;27.936;2023-11-18T06:46:17;99801.75;;;12.00;100.00
9764;BME280;4921;43.214;27.936;2023-11-18T06:48:46;99824.78;;;11.98;100.00
9764;BME280;4921;43.214;27.936;2023-11-18T06:51:13;99821.53;;;12.04;100.00
9764;BME280;4921;43.214;27.936;2023-11-18T06:53:42;99828.16;;;12.08;100.00
9764;BME280;4921;43.214;27.936;2023-11-18T06:56:10;99818.75;;;12.06;100.00
9764;BME280;4921;43.214;27.936;2023-11-18T06:58:38;99806.19;;;12.00;100.00
9764;BME280;4921;43.214;27.936;2023-11-18T07:01:05;99824.69;;;12.08;100.00
9764;BME280;4921;43.214;27.936;2023-11-18T07:03:32;99821.84;;;12.19;100.00
9764;BME280;4921;43.214;27.936;2023-11-18T07:05:59;99809.25;;;12.13;100.00
9764;BME280;4921;43.214;27.936;2023-11-18T07:08:26;99798.28;;;12.17;100.00
9764;BME280;4921;43.214;27.936;2023-11-18T07:10:55;99785.59;;;12.21;100.00
9764;BME280;4921;43.214;27.936;2023-11-18T07:13:22;99792.16;;;12.35;100.00
9764;BME280;4921;43.214;27.936;2023-11-18T07:15:49;99798.09;;;12.37;100.00
9764;BME280;4921;43.214;27.936;2023-11-18T07:18:17;99798.94;;;12.19;100.00
9764;BME280;4921;43.214;27.936;2023-11-18T07:20:47;99797.75;;;12.14;100.00
9764;BME280;4921;43.214;27.936;2023-11-18T07:23:16;99789.09;;;12.04;100.00
9764;BME280;4921;43.214;27.936;2023-11-18T07:25:43;99796.38;;;12.10;100.00
9764;BME280;4921;43.214;27.936;2023-11-18T07:28:12;99799.56;;;12.13;100.00
9764;BME280;4921;43.214;27.936;2023-11-18T07:30:41;99800.41;;;12.14;100.00
9764;BME280;4921;43.214;27.936;2023-11-18T07:33:08;99794.97;;;12.15;100.00
9764;BME280;4921;43.214;27.936;2023-11-18T07:35:35;99786.06;;;12.16;100.00
9764;BME280;4921;43.214;27.936;2023-11-18T07:38:03;99781.34;;;12.02;100.00
9764;BME280;4921;43.214;27.936;2023-11-18T07:40:32;99778.88;;;12.01;100.00
9764;BME280;4921;43.214;27.936;2023-11-18T07:43:00;99781.84;;;11.88;100.00
9764;BME280;4921;43.214;27.936;2023-11-18T07:45:35;99775.91;;;11.86;100.00
9764;BME280;4921;43.214;27.936;2023-11-18T07:48:03;99754.38;;;11.91;100.00
9764;BME280;4921;43.214;27.936;2023-11-18T07:50:33;99744.91;;;11.80;100.00
9764;BME280;4921;43.214;27.936;2023-11-18T07:53:00;99744.84;;;11.72;100.00
9764;BME280;4921;43.214;27.936;2023-11-18T07:55:27;99750.91;;;11.55;100.00
9764;BME280;4921;43.214;27.936;2023-11-18T07:57:54;99756.41;;;11.62;100.00
9764;BME280;4921;43.214;27.936;2023-11-18T08:00:21;99759.03;;;11.62;100.00
9764;BME280;4921;43.214;27.936;2023-11-18T08:02:50;99761.97;;;11.59;100.00
9764;BME280;4921;43.214;27.936;2023-11-18T08:05:19;99774.84;;;11.62;100.00
9764;BME280;4921;43.214;27.936;2023-11-18T08:07:48;99773.38;;;11.49;100.00
9764;BME280;4921;43.214;27.936;2023-11-18T08:10:16;99784.50;;;11.43;100.00
9764;BME280;4921;43.214;27.936;2023-11-18T08:12:44;99777.66;;;11.33;100.00
9764;BME280;4921;43.214;27.936;2023-11-18T08:15:12;99802.34;;;11.49;100.00
9764;BME280;4921;43.214;27.936;2023-11-18T08:17:39;99812.84;;;11.32;100.00
9764;BME280;4921;43.214;27.936;2023-11-18T08:20:08;99810.91;;;11.34;100.00
9764;BME280;4921;43.214;27.936;2023-11-18T08:22:40;99809.47;;;11.39;100.00
9764;BME280;4921;43.214;27.936;2023-11-18T08:25:09;99797.72;;;11.34;100.00
9764;BME280;4921;43.214;27.936;2023-11-18T08:27:38;99791.56;;;11.25;100.00
9764;BME280;4921;43.214;27.936;2023-11-18T08:30:06;99791.75;;;11.14;100.00
9764;BME280;4921;43.214;27.936;2023-11-18T08:32:39;99806.00;;;11.12;100.00
9764;BME280;4921;43.214;27.936;2023-11-18T08:35:11;99811.97;;;11.04;100.00
9764;BME280;4921;43.214;27.936;2023-11-18T08:37:40;99814.25;;;10.90;100.00
9764;BME280;4921;43.214;27.936;2023-11-18T08:40:08;99791.94;;;10.94;100.00
9764;BME280;4921;43.214;27.936;2023-11-18T08:42:41;99801.84;;;10.82;100.00
9764;BME280;4921;43.214;27.936;2023-11-18T08:45:14;99794.47;;;10.86;100.00
9764;BME280;4921;43.214;27.936;2023-11-18T08:47:46;99788.81;;;10.81;100.00
9764;BME280;4921;43.214;27.936;2023-11-18T08:50:15;99796.84;;;10.79;100.00
9764;BME280;4921;43.214;27.936;2023-11-18T08:52:43;99780.25;;;10.79;100.00
9764;BME280;4921;43.214;27.936;2023-11-18T08:55:12;99780.13;;;10.80;100.00
9764;BME280;4921;43.214;27.936;2023-11-18T08:57:44;99769.78;;;10.69;100.00
9764;BME280;4921;43.214;27.936;2023-11-18T09:00:18;99763.94;;;10.65;100.00
9764;BME280;4921;43.214;27.936;2023-11-18T09:02:59;99761.31;;;10.65;100.00
9764;BME280;4921;43.214;27.936;2023-11-18T09:05:28;99767.97;;;10.69;100.00
9764;BME280;4921;43.214;27.936;2023-11-18T09:07:57;99787.31;;;10.78;100.00
9764;BME280;4921;43.214;27.936;2023-11-18T09:10:26;99787.88;;;10.72;100.00
9764;BME280;4921;43.214;27.936;2023-11-18T09:12:55;99798.81;;;10.77;100.00
9764;BME280;4921;43.214;27.936;2023-11-18T09:15:22;99787.75;;;10.73;100.00
9764;BME280;4921;43.214;27.936;2023-11-18T09:17:49;99780.72;;;10.64;100.00
9764;BME280;4921;43.214;27.936;2023-11-18T09:20:16;99779.19;;;10.71;100.00
9764;BME280;4921;43.214;27.936;2023-11-18T09:22:47;99796.66;;;10.63;100.00
9764;BME280;4921;43.214;27.936;2023-11-18T09:25:14;99793.19;;;10.62;100.00
9764;BME280;4921;43.214;27.936;2023-11-18T09:27:43;99784.88;;;10.67;100.00
9764;BME280;4921;43.214;27.936;2023-11-18T09:30:11;99774.19;;;10.68;100.00
9764;BME280;4921;43.214;27.936;2023-11-18T09:32:40;99744.78;;;10.46;100.00
9764;BME280;4921;43.214;27.936;2023-11-18T09:35:08;99758.84;;;10.64;100.00
9764;BME280;4921;43.214;27.936;2023-11-18T09:37:38;99755.00;;;10.58;100.00
9764;BME280;4921;43.214;27.936;2023-11-18T09:40:09;99743.81;;;10.56;100.00
9764;BME280;4921;43.214;27.936;2023-11-18T09:42:40;99729.78;;;10.65;100.00
9764;BME280;4921;43.214;27.936;2023-11-18T09:45:09;99725.78;;;10.61;100.00
9764;BME280;4921;43.214;27.936;2023-11-18T09:47:42;99704.38;;;10.56;100.00
9764;BME280;4921;43.214;27.936;2023-11-18T09:50:17;99702.28;;;10.50;100.00
9764;BME280;4921;43.214;27.936;2023-11-18T09:52:48;99705.19;;;10.57;100.00
9764;BME280;4921;43.214;27.936;2023-11-18T09:55:25;99704.66;;;10.53;100.00
9764;BME280;4921;43.214;27.936;2023-11-18T09:58:04;99710.06;;;10.52;100.00
9764;BME280;4921;43.214;27.936;2023-11-18T10:00:39;99701.16;;;10.62;100.00
9764;BME280;4921;43.214;27.936;2023-11-18T10:03:07;99688.13;;;10.61;100.00
9764;BME280;4921;43.214;27.936;2023-11-18T10:05:40;99683.09;;;10.50;100.00
9764;BME280;4921;43.214;27.936;2023-11-18T10:08:07;99693.59;;;10.50;100.00
9764;BME280;4921;43.214;27.936;2023-11-18T10:10:36;99684.84;;;10.59;100.00
9764;BME280;4921;43.214;27.936;2023-11-18T10:13:04;99660.22;;;10.60;100.00
9764;BME280;4921;43.214;27.936;2023-11-18T10:15:34;99645.63;;;10.48;100.00
9764;BME280;4921;43.214;27.936;2023-11-18T10:18:02;99632.56;;;10.56;100.00
9764;BME280;4921;43.214;27.936;2023-11-18T10:20:46;99646.00;;;10.53;100.00
9764;BME280;4921;43.214;27.936;2023-11-18T10:23:14;99637.72;;;10.48;100.00
9764;BME280;4921;43.214;27.936;2023-11-18T10:25:47;99658.75;;;10.48;100.00
9764;BME280;4921;43.214;27.936;2023-11-18T10:28:25;99652.22;;;10.52;100.00
9764;BME280;4921;43.214;27.936;2023-11-18T10:30:53;99638.69;;;10.47;100.00
9764;BME280;4921;43.214;27.936;2023-11-18T10:33:24;99656.50;;;10.53;100.00
9764;BME280;4921;43.214;27.936;2023-11-18T10:35:56;99646.72;;;10.45;100.00
9764;BME280;4921;43.214;27.936;2023-11-18T10:38:24;99642.53;;;10.52;100.00
9764;BME280;4921;43.214;27.936;2023-11-18T10:40:57;99638.41;;;10.50;100.00
9764;BME280;4921;43.214;27.936;2023-11-18T10:43:27;99627.91;;;10.50;100.00
9764;BME280;4921;43.214;27.936;2023-11-18T10:46:05;99629.97;;;10.46;100.00
9764;BME280;4921;43.214;27.936;2023-11-18T10:48:38;99617.75;;;10.55;100.00
9764;BME280;4921;43.214;27.936;2023-11-18T10:51:07;99603.00;;;10.44;100.00
9764;BME280;4921;43.214;27.936;2023-11-18T10:53:37;99619.09;;;10.41;100.00
9764;BME280;4921;43.214;27.936;2023-11-18T10:56:16;99617.38;;;10.50;100.00
9764;BME280;4921;43.214;27.936;2023-11-18T10:58:45;99611.47;;;10.38;100.00
9764;BME280;4921;43.214;27.936;2023-11-18T11:01:12;99610.66;;;10.38;100.00
9764;BME280;4921;43.214;27.936;2023-11-18T11:03:53;99629.19;;;10.36;100.00
9764;BME280;4921;43.214;27.936;2023-11-18T11:06:23;99635.41;;;10.35;100.00
9764;BME280;4921;43.214;27.936;2023-11-18T11:08:50;99639.47;;;10.30;100.00
9764;BME280;4921;43.214;27.936;2023-11-18T11:11:21;99648.53;;;10.35;100.00
9764;BME280;4921;43.214;27.936;2023-11-18T11:13:55;99659.63;;;10.39;100.00
9764;BME280;4921;43.214;27.936;2023-11-18T11:16:28;99664.03;;;10.38;100.00
9764;BME280;4921;43.214;27.936;2023-11-18T11:19:04;99656.59;;;10.34;100.00
9764;BME280;4921;43.214;27.936;2023-11-18T11:21:37;99656.16;;;10.38;100.00
9764;BME280;4921;43.214;27.936;2023-11-18T11:24:12;99658.34;;;10.43;100.00
9764;BME280;4921;43.214;27.936;2023-11-18T11:26:51;99650.38;;;10.35;100.00
9764;BME280;4921;43.214;27.936;2023-11-18T11:29:25;99653.44;;;10.21;100.00
9764;BME280;4921;43.214;27.936;2023-11-18T11:32:11;99641.00;;;10.23;100.00
9764;BME280;4921;43.214;27.936;2023-11-18T11:34:40;99623.84;;;10.28;100.00
9764;BME280;4921;43.214;27.936;2023-11-18T11:37:11;99614.03;;;10.21;100.00
9764;BME280;4921;43.214;27.936;2023-11-18T11:39:40;99614.59;;;10.24;100.00
9764;BME280;4921;43.214;27.936;2023-11-18T11:42:15;99602.81;;;10.28;100.00
9764;BME280;4921;43.214;27.936;2023-11-18T11:44:44;99582.25;;;10.24;100.00
9764;BME280;4921;43.214;27.936;2023-11-18T11:47:12;99555.09;;;10.33;100.00
9764;BME280;4921;43.214;27.936;2023-11-18T11:49:47;99528.94;;;10.31;100.00
9764;BME280;4921;43.214;27.936;2023-11-18T11:52:22;99514.78;;;10.42;100.00
9764;BME280;4921;43.214;27.936;2023-11-18T11:55:00;99533.91;;;10.34;100.00
9764;BME280;4921;43.214;27.936;2023-11-18T11:57:31;99535.28;;;10.38;100.00
9764;BME280;4921;43.214;27.936;2023-11-18T12:00:02;99567.50;;;10.40;100.00
9764;BME280;4921;43.214;27.936;2023-11-18T12:02:48;99571.41;;;10.27;100.00
9764;BME280;4921;43.214;27.936;2023-11-18T12:05:16;99561.03;;;10.35;100.00
9764;BME280;4921;43.214;27.936;2023-11-18T12:07:44;99562.06;;;10.42;100.00
9764;BME280;4921;43.214;27.936;2023-11-18T12:10:12;99544.34;;;10.26;100.00
9764;BME280;4921;43.214;27.936;2023-11-18T12:12:48;99552.47;;;10.33;100.00
9764;BME280;4921;43.214;27.936;2023-11-18T12:15:47;99549.16;;;10.31;100.00
9764;BME280;4921;43.214;27.936;2023-11-18T12:18:20;99546.22;;;10.34;100.00
9764;BME280;4921;43.214;27.936;2023-11-18T12:20:47;99544.53;;;10.15;100.00
9764;BME280;4921;43.214;27.936;2023-11-18T12:23:19;99537.19;;;10.19;100.00
9764;BME280;4921;43.214;27.936;2023-11-18T12:25:49;99530.22;;;10.27;100.00
9764;BME280;4921;43.214;27.936;2023-11-18T12:28:25;99539.91;;;10.27;100.00
9764;BME280;4921;43.214;27.936;2023-11-18T12:30:54;99514.84;;;10.32;100.00
9764;BME280;4921;43.214;27.936;2023-11-18T12:34:00;99526.97;;;10.16;100.00
9764;BME280;4921;43.214;27.936;2023-11-18T12:37:08;99525.56;;;10.21;100.00
9764;BME280;4921;43.214;27.936;2023-11-18T12:43:08;99527.25;;;10.13;100.00
9764;BME280;4921;43.214;27.936;2023-11-18T12:45:48;99543.19;;;10.11;100.00
9764;BME280;4921;43.214;27.936;2023-11-18T12:48:27;99548.16;;;10.05;100.00
9764;BME280;4921;43.214;27.936;2023-11-18T12:50:58;99555.72;;;10.08;100.00
9764;BME280;4921;43.214;27.936;2023-11-18T12:53:26;99546.47;;;10.04;100.00
9764;BME280;4921;43.214;27.936;2023-11-18T12:55:54;99531.72;;;9.93;100.00
9764;BME280;4921;43.214;27.936;2023-11-18T12:58:21;99549.16;;;9.94;100.00
9764;BME280;4921;43.214;27.936;2023-11-18T13:00:50;99547.06;;;9.97;100.00
9764;BME280;4921;43.214;27.936;2023-11-18T13:03:17;99535.44;;;10.00;100.00
9764;BME280;4921;43.214;27.936;2023-11-18T13:05:46;99554.66;;;10.01;100.00
9764;BME280;4921;43.214;27.936;2023-11-18T13:08:14;99538.94;;;9.91;100.00
9764;BME280;4921;43.214;27.936;2023-11-18T13:10:42;99534.69;;;9.80;100.00
9764;BME280;4921;43.214;27.936;2023-11-18T13:13:10;99545.19;;;9.80;100.00
9764;BME280;4921;43.214;27.936;2023-11-18T13:15:40;99538.91;;;9.64;100.00